Time;durP1;ratioP1;P1;durP2;ratioP2;P2;SDS_P1;SDS_P2;PMS_P1;PMS_P2;Temp;Humidity;BMP_temperature;BMP_pressure;BME280_temperature;BME280_humidity;BME280_pressure;Samples;Min_cycle;Max_cycle;Signal;HPM_P1;HPM_P2
2022/04/21 00:01:42;;;;;;;;;;;4.90;99.90;;;;;;5081812;28;20045;-64
2022/04/21 00:04:07;;;;;;;5.75;2.83;;;4.90;99.90;;;;;;5083509;28;20012;-64
2022/04/21 00:06:33;;;;;;;5.97;2.53;;;4.90;99.90;;;;;;5082627;28;20040;-64
2022/04/21 00:08:59;;;;;;;5.47;2.97;;;4.80;99.90;;;;;;5080585;28;20039;-64
2022/04/21 00:11:24;;;;;;;;;;;4.80;99.90;;;;;;5082454;28;20083;-65
2022/04/21 00:13:50;;;;;;;7.88;2.67;;;4.80;99.90;;;;;;5081788;28;19924;-64
2022/04/21 00:16:16;;;;;;;;;;;4.80;99.90;;;;;;5082293;28;20036;-64
2022/04/21 00:18:42;;;;;;;2.72;2.20;;;4.80;99.90;;;;;;5084721;28;20023;-64
2022/04/21 00:21:08;;;;;;;5.55;2.63;;;4.80;99.90;;;;;;5066822;28;20151;-64
2022/04/21 00:23:34;;;;;;;5.78;2.70;;;4.70;99.90;;;;;;5068559;28;20610;-64
2022/04/21 00:26:00;;;;;;;;;;;4.70;99.90;;;;;;5049554;28;20055;-64
2022/04/21 00:28:29;;;;;;;4.10;2.22;;;4.70;99.90;;;;;;5060025;28;20391;-64
2022/04/21 00:30:56;;;;;;;4.05;2.60;;;4.70;99.90;;;;;;5082415;28;20446;-64
2022/04/21 00:33:21;;;;;;;5.70;2.65;;;4.70;99.90;;;;;;5066880;28;20151;-64
2022/04/21 00:35:47;;;;;;;5.88;2.50;;;4.70;99.90;;;;;;5068226;28;20148;-64
2022/04/21 00:38:13;;;;;;;7.55;2.65;;;4.70;99.90;;;;;;5067820;28;20048;-65
2022/04/21 00:40:38;;;;;;;;;;;4.70;99.90;;;;;;5070754;28;20135;-66
2022/04/21 00:43:04;;;;;;;4.60;2.47;;;4.70;99.90;;;;;;5068590;28;20640;-64
2022/04/21 00:45:31;;;;;;;;;;;4.70;99.90;;;;;;5068766;28;20051;-64
2022/04/21 00:47:58;;;;;;;4.03;2.67;;;4.70;99.90;;;;;;5066577;28;19928;-64
2022/04/21 00:50:33;;;;;;;7.45;2.72;;;4.60;99.90;;;;;;5068663;28;20831;-64
2022/04/21 00:53:00;;;;;;;6.78;2.70;;;4.60;99.90;;;;;;5067786;28;20044;-64
2022/04/21 00:55:26;;;;;;;6.05;2.53;;;4.50;99.90;;;;;;5067907;28;20047;-64
2022/04/21 00:57:53;;;;;;;5.40;2.30;;;4.50;99.90;;;;;;5068091;28;20040;-64
2022/04/21 01:00:19;;;;;;;7.50;2.72;;;4.50;99.90;;;;;;5066759;28;20040;-64
2022/04/21 01:02:46;;;;;;;3.65;2.67;;;4.50;99.90;;;;;;5066264;28;20044;-64
2022/04/21 01:05:25;;;;;;;6.53;2.67;;;4.40;99.90;;;;;;5067352;28;20043;-64
2022/04/21 01:07:51;;;;;;;7.20;2.65;;;4.50;99.90;;;;;;5066343;28;20032;-64
2022/04/21 01:10:17;;;;;;;3.80;2.50;;;4.40;99.90;;;;;;5066495;28;20698;-64
2022/04/21 01:12:43;;;;;;;6.88;2.80;;;4.40;99.90;;;;;;5067268;28;20115;-64
2022/04/21 01:15:09;;;;;;;4.28;2.45;;;4.40;99.90;;;;;;5067044;28;20113;-64
2022/04/21 01:17:37;;;;;;;8.40;2.70;;;4.40;99.90;;;;;;5066729;28;20040;-65
2022/04/21 01:20:04;;;;;;;9.02;3.20;;;4.40;99.90;;;;;;5067345;28;20480;-64
2022/04/21 01:22:31;;;;;;;4.53;2.80;;;4.30;99.90;;;;;;5067627;28;20040;-65
2022/04/21 01:24:57;;;;;;;8.45;3.22;;;4.30;99.90;;;;;;5067531;28;20040;-65
2022/04/21 01:27:27;;;;;;;7.53;2.60;;;4.30;99.90;;;;;;5067457;28;20051;-64
2022/04/21 01:29:53;;;;;;;6.75;3.05;;;4.20;99.90;;;;;;5066022;28;20083;-64
2022/04/21 01:32:18;;;;;;;4.50;2.55;;;4.30;99.90;;;;;;5083833;28;20099;-64
2022/04/21 01:34:44;;;;;;;3.60;2.22;;;4.20;99.90;;;;;;5087389;28;20039;-64
2022/04/21 01:42:38;;;;;;;8.85;2.80;;;4.10;99.90;;;;;;5067358;28;20044;-64
2022/04/21 01:45:04;;;;;;;6.75;2.83;;;4.10;99.90;;;;;;5081615;28;20106;-64
2022/04/21 01:47:29;;;;;;;;;;;4.10;99.90;;;;;;5087040;28;20040;-64
2022/04/21 01:49:55;;;;;;;5.18;2.30;;;4.10;99.90;;;;;;5087873;28;19916;-64
2022/04/21 01:52:20;;;;;;;;;;;4.00;99.90;;;;;;5087650;28;20507;-64
2022/04/21 01:54:50;;;;;;;7.30;2.65;;;4.00;99.90;;;;;;5086864;28;19923;-64
2022/04/21 01:57:19;;;;;;;7.13;2.90;;;4.00;99.90;;;;;;5086969;28;20055;-65
2022/04/21 01:59:45;;;;;;;5.07;2.83;;;3.90;99.90;;;;;;5086908;28;20056;-65
2022/04/21 02:02:11;;;;;;;4.82;2.72;;;3.90;99.90;;;;;;5083997;28;20448;-64
2022/04/21 02:04:37;;;;;;;9.40;2.85;;;3.90;99.90;;;;;;5086908;28;20106;-64
2022/04/21 02:07:05;;;;;;;6.82;3.00;;;3.90;99.90;;;;;;5086276;28;20055;-63
2022/04/21 02:09:31;;;;;;;7.40;2.90;;;3.80;99.90;;;;;;5086352;28;20097;-63
2022/04/21 02:11:58;;;;;;;4.85;2.55;;;3.80;99.90;;;;;;5086727;28;20032;-63
2022/04/21 02:14:24;;;;;;;3.63;2.83;;;3.80;99.90;;;;;;5085916;28;20040;-63
2022/04/21 02:16:49;;;;;;;6.22;3.25;;;3.80;99.90;;;;;;5086062;28;20521;-63
2022/04/21 02:19:15;;;;;;;8.52;2.95;;;3.70;99.90;;;;;;5084868;28;20039;-62
2022/04/21 02:21:40;;;;;;;;;;;3.70;99.90;;;;;;5086820;28;20633;-63
2022/04/21 02:24:06;;;;;;;13.07;3.65;;;3.70;99.90;;;;;;5084203;28;19920;-63
2022/04/21 02:26:32;;;;;;;4.78;2.30;;;3.60;99.90;;;;;;5086313;28;20036;-63
2022/04/21 02:28:57;;;;;;;4.18;2.88;;;3.60;99.90;;;;;;5085943;28;20044;-64
2022/04/21 02:31:23;;;;;;;5.13;2.60;;;3.60;99.90;;;;;;5082863;28;20067;-63
2022/04/21 02:33:48;;;;;;;4.53;2.75;;;3.60;99.90;;;;;;5077603;28;20068;-63
2022/04/21 02:36:14;;;;;;;6.93;2.63;;;3.60;99.90;;;;;;5086346;28;20035;-63
2022/04/21 02:38:39;;;;;;;7.18;3.13;;;3.60;99.90;;;;;;5085494;28;20036;-64
2022/04/21 02:41:06;;;;;;;7.13;3.20;;;3.60;99.90;;;;;;5085512;28;20040;-63
2022/04/21 02:43:31;;;;;;;6.82;3.35;;;3.50;99.90;;;;;;5085757;28;20043;-64
2022/04/21 02:45:57;;;;;;;6.28;3.17;;;3.50;99.90;;;;;;5085666;28;20044;-62
2022/04/21 02:48:23;;;;;;;6.95;3.35;;;3.50;99.90;;;;;;5085586;28;20447;-63
2022/04/21 02:50:49;;;;;;;6.68;2.80;;;3.40;99.90;;;;;;5086710;28;20051;-64
2022/04/21 02:53:16;;;;;;;6.68;2.80;;;3.50;99.90;;;;;;5087243;28;20032;-63
2022/04/21 02:58:27;;;;;;;7.18;2.90;;;3.40;99.90;;;;;;5086963;28;20040;-63
2022/04/21 03:00:52;;;;;;;7.10;2.55;;;3.40;99.90;;;;;;5086204;28;20040;-63
2022/04/21 03:03:18;;;;;;;12.30;3.13;;;3.40;99.90;;;;;;5085716;28;20050;-64
2022/04/21 03:05:43;;;;;;;4.60;2.75;;;3.40;99.90;;;;;;5085868;28;20048;-63
2022/04/21 03:08:09;;;;;;;5.40;2.67;;;3.30;99.90;;;;;;5085862;28;20104;-63
2022/04/21 03:10:34;;;;;;;11.02;3.10;;;3.30;99.90;;;;;;5085817;28;20036;-64
2022/04/21 03:13:00;;;;;;;6.43;3.53;;;3.30;99.90;;;;;;5085128;28;20036;-63
2022/04/21 03:15:26;;;;;;;5.00;3.22;;;3.30;99.90;;;;;;5087737;28;20032;-63
2022/04/21 03:17:51;;;;;;;6.82;2.92;;;3.20;99.90;;;;;;5085985;28;20036;-63
2022/04/21 03:25:46;;;;;;;6.05;2.55;;;3.10;99.90;;;;;;5085432;28;20040;-63
2022/04/21 03:28:12;;;;;;;10.45;3.60;;;3.10;99.90;;;;;;5085347;28;20047;-63
2022/04/21 03:30:38;;;;;;;6.28;3.15;;;3.00;99.90;;;;;;5080483;28;20128;-63
2022/04/21 03:33:04;;;;;;;6.55;3.05;;;3.00;99.90;;;;;;5065318;28;20128;-63
2022/04/21 03:35:29;;;;;;;;;;;3.10;99.90;;;;;;5067064;28;20036;-63
2022/04/21 03:37:55;;;;;;;5.53;3.22;;;3.00;99.90;;;;;;5065471;28;20023;-63
2022/04/21 03:40:21;;;;;;;5.15;3.20;;;3.00;99.90;;;;;;5061493;28;20048;-63
2022/04/21 03:42:47;;;;;;;7.18;2.83;;;3.00;99.90;;;;;;5064864;28;20036;-62
2022/04/21 03:45:12;;;;;;;6.75;3.33;;;3.00;99.90;;;;;;5064770;28;20476;-63
2022/04/21 03:47:39;;;;;;;6.45;2.90;;;2.90;99.90;;;;;;5064381;28;20067;-64
2022/04/21 03:50:05;;;;;;;7.05;3.63;;;2.90;99.90;;;;;;5063568;28;20043;-64
2022/04/21 03:52:31;;;;;;;7.68;3.38;;;2.90;99.90;;;;;;5064461;28;20041;-63
2022/04/21 03:54:57;;;;;;;7.07;3.53;;;2.90;99.90;;;;;;5067904;28;20028;-63
2022/04/21 03:57:25;;;;;;;7.07;3.42;;;2.90;99.90;;;;;;5067179;28;20040;-63
2022/04/21 03:59:50;;;;;;;12.43;3.20;;;2.80;99.90;;;;;;5067717;28;20037;-65
2022/04/21 04:02:16;;;;;;;12.85;3.75;;;2.80;99.90;;;;;;5059743;28;20043;-64
2022/04/21 04:04:42;;;;;;;7.28;3.78;;;2.80;99.90;;;;;;5074185;28;20036;-63
2022/04/21 04:12:38;;;;;;;6.65;2.80;;;2.80;99.90;;;;;;5056764;28;20041;-63
2022/04/21 04:15:06;;;;;;;19.77;3.80;;;2.70;99.90;;;;;;5059503;28;20040;-64
2022/04/21 04:17:31;;;;;;;10.68;3.90;;;2.70;99.90;;;;;;5064588;28;20051;-64
2022/04/21 04:19:57;;;;;;;9.43;3.63;;;2.70;99.90;;;;;;5067254;28;20041;-63
2022/04/21 04:22:23;;;;;;;8.00;3.33;;;2.70;99.90;;;;;;5068062;28;20052;-63
2022/04/21 04:24:54;;;;;;;8.82;3.15;;;2.60;99.90;;;;;;5064341;28;20045;-63
2022/04/21 04:27:23;;;;;;;7.75;3.58;;;2.60;99.90;;;;;;5068312;28;20037;-64
2022/04/21 04:29:49;;;;;;;25.80;5.05;;;2.60;99.90;;;;;;5068121;28;20048;-63
2022/04/21 04:32:15;;;;;;;7.35;3.33;;;2.70;99.90;;;;;;5065668;28;20048;-63
2022/04/21 04:34:41;;;;;;;;;;;2.70;99.90;;;;;;5068470;28;20039;-64
2022/04/21 04:37:06;;;;;;;13.18;4.00;;;2.70;99.90;;;;;;5068016;28;19917;-64
2022/04/21 04:39:32;;;;;;;7.25;3.00;;;2.70;99.90;;;;;;5065366;28;20139;-64
2022/04/21 04:42:16;;;;;;;9.82;3.20;;;2.80;99.90;;;;;;5067776;28;20037;-64
2022/04/21 04:44:41;;;;;;;8.38;3.75;;;2.80;99.90;;;;;;5082857;28;20040;-63
2022/04/21 04:47:07;;;;;;;7.95;3.55;;;2.80;99.90;;;;;;5066861;28;20039;-64
2022/04/21 04:49:33;;;;;;;13.85;3.78;;;2.90;99.90;;;;;;5067891;28;20032;-65
2022/04/21 04:51:58;;;;;;;6.88;3.72;;;2.90;99.90;;;;;;5067818;28;20028;-64
2022/04/21 04:54:25;;;;;;;13.75;4.32;;;3.00;99.90;;;;;;5067034;28;20171;-63
2022/04/21 04:56:51;;;;;;;12.90;4.32;;;3.10;99.90;;;;;;5065514;28;20056;-63
2022/04/21 04:59:17;;;;;;;9.68;3.80;;;3.20;99.90;;;;;;5061046;28;20064;-64
2022/04/21 05:01:45;;;;;;;14.15;3.92;;;3.40;99.90;;;;;;5066281;28;20047;-64
2022/04/21 05:04:18;;;;;;;10.55;3.25;;;3.80;99.90;;;;;;5059762;28;20113;-64
2022/04/21 05:06:55;;;;;;;17.63;3.72;;;4.40;99.90;;;;;;5067307;28;20048;-64
2022/04/21 05:09:22;;;;;;;10.20;3.50;;;5.30;99.90;;;;;;5061713;28;20036;-64
2022/04/21 05:11:53;;;;;;;5.63;2.90;;;6.20;99.90;;;;;;5048283;28;20049;-62
2022/04/21 05:14:20;;;;;;;9.02;3.15;;;6.50;99.90;;;;;;5066210;28;20040;-64
2022/04/21 05:16:47;;;;;;;7.80;3.65;;;6.50;99.90;;;;;;5066764;28;20044;-63
2022/04/21 05:19:16;;;;;;;8.70;3.88;;;6.10;99.90;;;;;;5064492;28;20071;-64
2022/04/21 05:21:43;;;;;;;8.82;3.30;;;6.20;99.90;;;;;;5066205;28;20556;-64
2022/04/21 05:24:12;;;;;;;11.50;3.67;;;6.10;99.90;;;;;;5062346;28;20047;-64
2022/04/21 05:26:40;;;;;;;6.18;2.83;;;6.10;99.90;;;;;;5066920;28;20048;-64
2022/04/21 05:31:59;;;;;;;5.40;2.93;;;6.10;99.90;;;;;;5064958;28;20044;-62
2022/04/21 05:34:27;;;;;;;5.53;3.25;;;6.20;99.90;;;;;;5073132;28;20052;-65
2022/04/21 05:36:53;;;;;;;7.53;2.90;;;6.20;99.90;;;;;;5064439;28;20059;-63
2022/04/21 05:39:20;;;;;;;5.38;2.65;;;6.10;99.90;;;;;;5066235;28;20037;-64
2022/04/21 05:41:46;;;;;;;13.80;3.17;;;6.00;99.90;;;;;;5066463;28;20044;-63
2022/04/21 05:44:12;;;;;;;8.10;3.17;;;5.90;99.90;;;;;;5066545;28;20037;-64
2022/04/21 05:46:38;;;;;;;15.52;3.70;;;5.80;99.90;;;;;;5066833;28;20329;-63
2022/04/21 05:49:03;;;;;;;;;;;5.90;99.90;;;;;;5066889;28;20553;-64
2022/04/21 05:51:30;;;;;;;6.93;3.17;;;5.90;99.90;;;;;;5065897;28;20296;-63
2022/04/21 05:53:58;;;;;;;11.48;3.50;;;5.90;99.90;;;;;;5066828;28;20052;-64
2022/04/21 05:56:24;;;;;;;10.85;3.47;;;5.90;99.90;;;;;;5066694;28;20048;-64
2022/04/21 05:58:51;;;;;;;7.57;2.88;;;5.90;99.90;;;;;;5066686;28;20044;-64
2022/04/21 06:01:18;;;;;;;9.13;3.78;;;5.90;99.90;;;;;;5074100;28;20035;-64
2022/04/21 06:03:44;;;;;;;8.55;4.28;;;6.00;99.90;;;;;;5084592;28;20040;-65
2022/04/21 06:06:10;;;;;;;10.25;3.90;;;6.00;99.90;;;;;;5085321;28;20051;-65
2022/04/21 06:08:36;;;;;;;;;;;6.10;99.90;;;;;;5086779;28;20036;-65
2022/04/21 06:11:03;;;;;;;7.13;3.80;;;6.10;99.90;;;;;;5084855;28;19923;-64
2022/04/21 06:13:30;;;;;;;5.53;3.53;;;6.20;99.90;;;;;;5085857;28;20036;-63
2022/04/21 06:15:56;;;;;;;10.18;3.95;;;6.30;99.90;;;;;;5085153;28;20036;-65
2022/04/21 06:18:23;;;;;;;7.97;3.75;;;6.50;99.90;;;;;;5083935;28;20113;-64
2022/04/21 06:20:49;;;;;;;5.43;3.88;;;6.60;99.90;;;;;;5085158;28;20040;-65
2022/04/21 06:23:15;;;;;;;;;;;6.80;99.90;;;;;;5073189;28;20311;-66
2022/04/21 06:25:42;;;;;;;8.30;3.40;;;7.10;99.90;;;;;;5085642;28;19924;-65
2022/04/21 06:28:07;;;;;;;6.43;3.97;;;7.30;99.90;;;;;;5083518;28;20040;-63
2022/04/21 06:30:33;;;;;;;;;;;7.70;99.90;;;;;;5085479;28;20035;-64
2022/04/21 06:32:59;;;;;;;7.25;3.80;;;7.90;99.90;;;;;;5084468;28;19920;-65
2022/04/21 06:35:25;;;;;;;;;;;8.10;99.90;;;;;;5071575;28;20453;-66
2022/04/21 06:37:51;;;;;;;8.38;4.70;;;8.20;99.90;;;;;;5086249;28;20014;-66
2022/04/21 06:40:16;;;;;;;;;;;8.10;99.90;;;;;;5077131;28;20191;-63
2022/04/21 06:42:42;;;;;;;11.95;4.38;;;8.10;99.90;;;;;;5069130;28;20014;-64
2022/04/21 06:48:04;;;;;;;8.02;4.13;;;8.00;99.90;;;;;;5067149;28;20581;-65
2022/04/21 06:50:31;;;;;;;16.33;4.93;;;8.00;99.90;;;;;;5080680;28;20124;-61
2022/04/21 06:52:57;;;;;;;19.48;5.05;;;8.10;99.90;;;;;;5064270;28;20140;-63
2022/04/21 06:55:23;;;;;;;;;;;8.10;99.90;;;;;;5080578;28;20059;-63
2022/04/21 06:57:49;;;;;;;15.35;4.88;;;8.20;99.90;;;;;;5063590;28;20705;-64
2022/04/21 07:00:16;;;;;;;11.98;5.20;;;8.20;99.90;;;;;;5062576;28;20047;-64
2022/04/21 07:02:42;;;;;;;7.70;4.07;;;8.20;99.90;;;;;;5083105;28;20067;-63
2022/04/21 07:05:10;;;;;;;11.50;3.67;;;8.20;99.90;;;;;;5085450;28;20093;-65
2022/04/21 07:07:39;;;;;;;8.25;3.30;;;8.10;99.90;;;;;;5085264;28;20043;-62
2022/04/21 07:10:05;;;;;;;6.20;3.00;;;8.10;99.90;;;;;;5085327;28;20040;-65
2022/04/21 07:12:33;;;;;;;3.67;2.40;;;8.10;99.90;;;;;;5083777;28;20048;-64
2022/04/21 07:15:03;;;;;;;6.60;2.95;;;8.30;99.90;;;;;;5083912;28;20115;-64
2022/04/21 07:17:29;;;;;;;4.97;3.10;;;8.60;99.00;;;;;;5083966;28;20043;-63
2022/04/21 07:19:54;;;;;;;7.13;3.08;;;8.70;99.70;;;;;;5085104;28;20051;-63
2022/04/21 07:22:20;;;;;;;;;;;8.80;97.70;;;;;;5085540;28;20040;-63
2022/04/21 07:24:47;;;;;;;6.47;2.83;;;8.80;97.40;;;;;;5084183;28;19916;-63
2022/04/21 07:27:13;;;;;;;11.73;3.17;;;8.80;97.70;;;;;;5085491;28;20041;-64
2022/04/21 07:29:38;;;;;;;3.80;2.70;;;8.70;98.00;;;;;;5088854;28;20068;-64
2022/04/21 07:32:04;;;;;;;;;;;8.60;97.80;;;;;;5088040;28;20119;-63
2022/04/21 07:34:30;;;;;;;4.93;2.55;;;8.40;97.30;;;;;;5087694;28;19916;-65
2022/04/21 07:36:55;;;;;;;;;;;8.20;97.80;;;;;;5089542;28;20040;-62
2022/04/21 07:39:21;;;;;;;8.05;3.13;;;8.00;97.50;;;;;;5089112;28;19924;-64
2022/04/21 07:41:47;;;;;;;;;;;7.90;98.20;;;;;;5089170;28;20036;-63
2022/04/21 07:44:12;;;;;;;9.13;3.35;;;7.80;98.10;;;;;;5089347;28;20216;-63
2022/04/21 07:46:38;;;;;;;;;;;7.80;98.10;;;;;;5089403;28;20073;-64
2022/04/21 07:51:48;;;;;;;7.63;3.10;;;7.90;97.80;;;;;;5074979;28;20035;-63
2022/04/21 07:54:14;;;;;;;;;;;7.90;98.00;;;;;;5089407;28;20032;-63
2022/04/21 07:56:39;;;;;;;7.60;3.47;;;8.00;98.00;;;;;;5088699;28;20003;-65
2022/04/21 07:59:05;;;;;;;;;;;8.20;98.20;;;;;;5087987;28;20043;-64
2022/04/21 08:01:30;;;;;;;5.72;3.58;;;8.30;98.10;;;;;;5085235;28;19951;-63
2022/04/21 08:04:01;;;;;;;;;;;8.50;98.50;;;;;;5086588;28;20040;-63
2022/04/21 08:06:30;;;;;;;5.20;2.80;;;8.50;98.10;;;;;;5086700;28;19980;-64
2022/04/21 08:08:56;;;;;;;13.88;3.20;;;8.70;97.80;;;;;;5078313;28;20059;-63
2022/04/21 08:11:21;;;;;;;;;;;8.70;96.90;;;;;;5088679;28;20072;-63
2022/04/21 08:13:48;;;;;;;7.53;3.33;;;8.90;98.00;;;;;;5085392;28;20335;-63
2022/04/21 08:16:13;;;;;;;6.07;2.92;;;9.50;96.80;;;;;;5087173;28;20583;-64
2022/04/21 08:18:39;;;;;;;;;;;10.10;96.50;;;;;;5088525;28;20040;-65
2022/04/21 08:21:05;;;;;;;6.00;2.50;;;9.90;95.30;;;;;;5088570;28;20379;-63
2022/04/21 08:23:35;;;;;;;5.90;2.70;;;9.70;95.20;;;;;;5087849;28;20487;-64
2022/04/21 08:34:14;;;;;;;6.75;3.08;;;9.60;95.60;;;;;;5068222;28;20070;-64
2022/04/21 08:36:39;;;;;;;;;;;10.30;94.60;;;;;;5081430;28;20133;-64
2022/04/21 08:39:05;;;;;;;7.15;2.72;;;10.50;95.90;;;;;;5090523;28;20046;-64
2022/04/21 08:41:32;;;;;;;;;;;10.30;94.20;;;;;;5093888;28;20028;-64
2022/04/21 08:44:00;;;;;;;7.82;3.28;;;9.80;96.10;;;;;;5085825;28;19923;-63
2022/04/21 08:46:27;;;;;;;5.90;2.60;;;9.80;95.70;;;;;;5087633;28;20478;-64
2022/04/21 08:48:53;;;;;;;9.55;2.95;;;9.90;95.00;;;;;;5087520;28;20036;-64
2022/04/21 08:51:19;;;;;;;;;;;10.00;95.10;;;;;;5087386;28;20051;-65
2022/04/21 08:53:45;;;;;;;7.70;3.33;;;10.00;95.60;;;;;;5088155;28;19923;-65
2022/04/21 08:56:12;;;;;;;;;;;10.00;94.90;;;;;;5091747;28;20035;-64
2022/04/21 08:58:37;;;;;;;6.03;3.28;;;10.20;94.40;;;;;;5092734;28;19955;-64
2022/04/21 09:01:03;;;;;;;;;;;10.40;95.70;;;;;;5087425;28;20068;-63
2022/04/21 09:03:31;;;;;;;7.93;3.25;;;10.50;95.60;;;;;;5087928;28;19939;-65
2022/04/21 09:05:57;;;;;;;17.52;4.78;;;10.60;94.60;;;;;;5085301;28;20514;-64
2022/04/21 09:08:23;;;;;;;;;;;10.80;93.80;;;;;;5088720;28;20039;-65
2022/04/21 09:11:03;;;;;;;5.20;3.03;;;10.80;95.40;;;;;;5087817;28;20295;-65
2022/04/21 09:13:39;;;;;;;6.53;3.20;;;11.30;95.40;;;;;;5087818;28;20043;-65
2022/04/21 09:16:08;;;;;;;6.95;3.10;;;11.60;93.90;;;;;;5085898;28;20460;-65
2022/04/21 09:18:37;;;;;;;4.43;2.80;;;11.70;92.60;;;;;;5087147;28;20137;-64
2022/04/21 09:21:07;;;;;;;6.60;3.03;;;11.70;93.00;;;;;;5087087;28;20074;-65
2022/04/21 09:23:34;;;;;;;6.22;3.05;;;11.70;92.10;;;;;;5086903;28;20081;-65
2022/04/21 09:26:16;;;;;;;9.18;3.20;;;11.80;93.60;;;;;;5087552;28;20468;-64
2022/04/21 09:28:42;;;;;;;6.03;2.72;;;11.80;91.90;;;;;;5084814;28;20032;-64
2022/04/21 09:31:09;;;;;;;;;;;11.70;91.40;;;;;;5086868;28;20043;-65
2022/04/21 09:33:44;;;;;;;7.28;3.13;;;11.50;93.10;;;;;;5086926;28;20524;-64
2022/04/21 09:36:10;;;;;;;5.70;3.83;;;11.50;93.50;;;;;;5085510;28;20135;-64
2022/04/21 09:38:36;;;;;;;;;;;11.60;93.00;;;;;;5088337;28;20131;-63
2022/04/21 09:41:10;;;;;;;9.40;3.55;;;11.60;92.90;;;;;;5108044;28;19980;-63
2022/04/21 09:43:41;;;;;;;8.40;3.30;;;11.30;92.60;;;;;;5072884;28;20063;-63
2022/04/21 09:46:21;;;;;;;7.85;3.10;;;11.10;93.20;;;;;;5087439;28;20044;-63
2022/04/21 09:48:52;;;;;;;8.35;3.00;;;10.90;93.20;;;;;;5083887;28;20101;-63
2022/04/21 09:51:23;;;;;;;5.68;3.00;;;10.90;93.60;;;;;;5085678;28;20663;-64
2022/04/21 09:53:58;;;;;;;6.82;3.17;;;11.20;92.90;;;;;;5086865;28;20132;-63
2022/04/21 09:56:33;;;;;;;7.80;3.67;;;11.20;94.00;;;;;;5087434;28;20051;-64
2022/04/21 09:59:04;;;;;;;5.03;2.80;;;11.40;93.80;;;;;;5087956;28;20047;-63
2022/04/21 10:01:33;;;;;;;6.72;3.40;;;11.40;92.50;;;;;;5091763;28;20419;-63
2022/04/21 10:04:00;;;;;;;6.13;2.70;;;11.40;92.60;;;;;;5093083;28;20047;-64
2022/04/21 10:06:26;;;;;;;6.07;2.85;;;11.50;93.60;;;;;;5091544;28;20047;-67
2022/04/21 10:08:53;;;;;;;5.55;2.70;;;11.70;93.20;;;;;;5093823;28;20075;-64
2022/04/21 10:11:25;;;;;;;4.18;2.65;;;11.90;92.90;;;;;;5088555;28;20455;-64
2022/04/21 10:13:55;;;;;;;4.55;2.80;;;12.20;92.20;;;;;;5086213;28;20032;-63
2022/04/21 10:16:22;;;;;;;7.85;3.00;;;12.00;92.10;;;;;;5095554;28;20035;-64
2022/04/21 10:18:57;;;;;;;7.07;3.17;;;12.00;93.40;;;;;;5083949;28;20040;-66
2022/04/21 10:21:31;;;;;;;4.55;3.08;;;11.80;93.00;;;;;;5094127;28;20866;-62
2022/04/21 10:23:57;;;;;;;6.93;3.55;;;11.80;94.50;;;;;;5090026;28;20032;-62
2022/04/21 10:26:43;;;;;;;6.18;3.70;;;11.80;93.50;;;;;;5097730;28;20114;-63
2022/04/21 10:29:14;;;;;;;8.63;2.83;;;11.80;93.90;;;;;;5093042;28;20051;-62
2022/04/21 10:31:45;;;;;;;6.63;3.22;;;11.80;93.60;;;;;;5100708;28;20713;-63
2022/04/21 10:34:31;;;;;;;4.75;3.50;;;12.00;93.90;;;;;;5106819;28;20051;-63
2022/04/21 10:37:09;;;;;;;12.93;3.30;;;11.90;93.80;;;;;;5117393;28;20403;-61
2022/04/21 10:39:35;;;;;;;5.28;2.92;;;11.70;93.50;;;;;;5093587;28;20031;-63
2022/04/21 10:42:13;;;;;;;10.98;4.05;;;11.60;94.30;;;;;;5095007;28;20099;-62
2022/04/21 10:44:53;;;;;;;7.50;3.30;;;11.80;93.30;;;;;;5099786;28;20067;-62
2022/04/21 10:47:36;;;;;;;6.93;3.58;;;11.70;93.10;;;;;;5094808;28;20040;-62
2022/04/21 10:50:10;;;;;;;5.43;3.40;;;11.90;93.30;;;;;;5089182;28;20044;-62
2022/04/21 10:58:47;;;;;;;6.45;4.13;;;11.60;93.80;;;;;;5074242;28;20036;-64
2022/04/21 11:01:18;;;;;;;9.88;4.43;;;11.50;94.20;;;;;;5084116;28;20036;-62
2022/04/21 11:03:45;;;;;;;9.32;4.60;;;11.30;94.60;;;;;;5083205;28;20463;-62
2022/04/21 11:06:16;;;;;;;11.77;5.28;;;11.30;95.10;;;;;;5085311;28;20052;-64
2022/04/21 11:08:42;;;;;;;12.07;4.97;;;11.30;95.80;;;;;;5085457;28;20062;-63
2022/04/21 11:11:08;;;;;;;8.10;5.25;;;11.20;96.40;;;;;;5085379;28;20044;-64
2022/04/21 11:13:53;;;;;;;10.65;5.60;;;11.20;96.60;;;;;;5085443;28;20040;-63
2022/04/21 11:16:41;;;;;;;12.32;5.57;;;11.30;96.40;;;;;;5084818;28;20092;-63
2022/04/21 11:19:28;;;;;;;10.88;5.72;;;11.40;96.60;;;;;;5085147;28;20488;-63
2022/04/21 11:21:55;;;;;;;8.55;5.35;;;11.40;98.10;;;;;;5065515;28;20063;-64
2022/04/21 11:24:21;;;;;;;12.45;5.45;;;11.40;97.70;;;;;;5078216;28;20040;-63
2022/04/21 11:26:57;;;;;;;;;;;11.30;96.50;;;;;;5085825;28;20131;-65
2022/04/21 11:29:22;;;;;;;11.48;6.32;;;11.50;97.30;;;;;;5085958;28;20007;-64
2022/04/21 11:31:48;;;;;;;;;;;11.40;96.60;;;;;;5083804;28;20127;-64
2022/04/21 11:34:24;;;;;;;15.38;5.88;;;11.30;96.90;;;;;;5084991;28;19962;-63
2022/04/21 11:36:53;;;;;;;13.77;6.85;;;11.30;96.80;;;;;;5085676;28;20075;-64
2022/04/21 11:39:19;;;;;;;13.25;6.43;;;11.30;96.30;;;;;;5089987;28;20464;-64
2022/04/21 11:41:48;;;;;;;13.07;5.93;;;11.30;97.10;;;;;;5088276;28;20075;-64
2022/04/21 11:44:23;;;;;;;11.48;5.80;;;11.30;97.80;;;;;;5100015;28;20040;-64
2022/04/21 11:46:49;;;;;;;12.70;6.45;;;11.20;97.70;;;;;;5089079;28;20071;-63
2022/04/21 11:49:15;;;;;;;10.75;5.65;;;11.30;97.10;;;;;;5088884;28;20792;-64
2022/04/21 11:51:41;;;;;;;;;;;11.20;97.40;;;;;;5083766;28;20135;-64
2022/04/21 11:54:08;;;;;;;9.38;5.53;;;11.20;96.80;;;;;;5092699;28;19965;-63
2022/04/21 11:56:34;;;;;;;17.52;6.40;;;11.20;97.00;;;;;;5084857;28;20075;-64
2022/04/21 11:59:09;;;;;;;;;;;11.10;97.50;;;;;;5084005;28;20091;-63
2022/04/21 12:07:15;;;;;;;12.10;6.10;;;11.40;97.30;;;;;;5084395;28;20048;-64
2022/04/21 12:09:42;;;;;;;12.55;6.05;;;11.30;97.50;;;;;;5084080;28;20717;-63
2022/04/21 12:12:08;;;;;;;13.90;5.80;;;11.30;97.10;;;;;;5084972;28;20048;-64
2022/04/21 12:14:34;;;;;;;;;;;11.20;97.10;;;;;;5087303;28;20036;-63
2022/04/21 12:17:01;;;;;;;11.23;5.85;;;11.30;98.10;;;;;;5088252;28;19916;-65
2022/04/21 12:19:45;;;;;;;11.75;6.15;;;11.20;97.50;;;;;;5088095;28;20052;-62
2022/04/21 12:22:30;;;;;;;11.98;6.03;;;11.10;97.60;;;;;;5088655;28;20044;-63
2022/04/21 12:24:55;;;;;;;14.73;7.20;;;11.00;97.90;;;;;;5088046;28;20443;-65
2022/04/21 12:27:22;;;;;;;;;;;10.90;98.30;;;;;;5080985;28;20089;-63
2022/04/21 12:29:58;;;;;;;9.43;5.53;;;10.90;98.70;;;;;;5085367;28;19920;-63
2022/04/21 12:32:35;;;;;;;22.80;9.98;;;10.80;99.00;;;;;;5087356;28;20051;-63
2022/04/21 12:35:06;;;;;;;17.88;9.02;;;10.90;98.80;;;;;;5087685;28;20047;-62
2022/04/21 12:37:37;;;;;;;13.75;5.70;;;10.80;98.80;;;;;;5088080;28;20459;-63
2022/04/21 12:40:10;;;;;;;9.35;5.72;;;10.90;98.80;;;;;;5087716;28;20040;-63
2022/04/21 12:42:38;;;;;;;11.73;6.22;;;11.00;98.10;;;;;;5087726;28;20040;-62
2022/04/21 12:45:05;;;;;;;8.80;5.05;;;10.90;98.00;;;;;;5084549;28;20032;-63
2022/04/21 12:47:41;;;;;;;15.45;5.30;;;11.20;98.50;;;;;;5087518;28;20736;-64
2022/04/21 12:50:12;;;;;;;12.75;5.50;;;11.30;97.90;;;;;;5086884;28;20036;-64
2022/04/21 12:52:49;;;;;;;20.25;6.88;;;11.50;98.30;;;;;;5087827;28;20044;-63
2022/04/21 12:55:19;;;;;;;11.43;6.38;;;11.40;98.30;;;;;;5087644;28;20036;-64
2022/04/21 12:58:02;;;;;;;14.77;5.90;;;11.30;99.10;;;;;;5088061;28;20071;-63
2022/04/21 13:00:29;;;;;;;12.95;5.70;;;11.30;97.60;;;;;;5086482;28;20048;-63
2022/04/21 13:03:01;;;;;;;12.45;6.22;;;11.30;97.70;;;;;;5087843;28;20051;-62
2022/04/21 13:05:28;;;;;;;13.25;6.53;;;11.50;98.80;;;;;;5087378;28;20298;-63
2022/04/21 13:07:53;;;;;;;;;;;11.70;98.20;;;;;;5087787;28;20048;-64
2022/04/21 13:10:21;;;;;;;9.80;5.70;;;11.60;98.30;;;;;;5087288;28;20555;-66
2022/04/21 13:12:47;;;;;;;16.70;6.55;;;11.60;97.90;;;;;;5086954;28;20188;-64
2022/04/21 13:15:14;;;;;;;10.02;5.32;;;11.50;98.90;;;;;;5087268;28;20061;-64
2022/04/21 13:17:42;;;;;;;13.23;5.47;;;11.70;98.10;;;;;;5087009;28;20035;-63
2022/04/21 13:21:52;;;;;;;;;;;11.90;98.20;;;;;;5087266;28;20039;-64
2022/04/21 13:23:04;;;;;;;9.23;6.28;;;11.80;98.10;;;;;;5086896;28;19924;-62
2022/04/21 13:25:36;;;;;;;11.65;6.05;;;11.70;97.90;;;;;;5073544;28;20512;-64
2022/04/21 13:28:02;;;;;;;13.38;5.50;;;11.50;98.90;;;;;;5087166;28;20048;-62
2022/04/21 13:30:32;;;;;;;10.77;5.45;;;11.60;97.90;;;;;;5085196;28;20660;-64
2022/04/21 13:35:48;;;;;;;;;;;11.50;98.50;;;;;;5087361;28;20036;-65
2022/04/21 13:38:16;;;;;;;8.25;5.60;;;11.40;98.80;;;;;;5086522;28;20633;-64
2022/04/21 13:40:43;;;;;;;9.82;5.60;;;11.60;98.80;;;;;;5086074;28;20036;-64
2022/04/21 13:43:11;;;;;;;10.25;5.30;;;11.70;98.90;;;;;;5087019;28;20043;-63
2022/04/21 13:45:38;;;;;;;;;;;11.70;99.10;;;;;;5087260;28;20036;-63
2022/04/21 13:48:11;;;;;;;18.35;6.95;;;11.60;98.50;;;;;;5086346;28;19923;-63
2022/04/21 13:50:48;;;;;;;8.55;5.20;;;11.50;98.20;;;;;;5086647;28;20039;-62
2022/04/21 13:53:17;;;;;;;8.65;5.65;;;11.30;98.50;;;;;;5086529;28;20511;-63
2022/04/21 13:55:45;;;;;;;9.77;5.13;;;11.50;99.30;;;;;;5086148;28;20044;-64
2022/04/21 13:58:14;;;;;;;10.07;5.75;;;11.70;98.80;;;;;;5086370;28;20048;-64